sensor_id;sensor_type;location;lat;lon;timestamp;pressure;altitude;pressure_sealevel;temperature;humidity
46464;BME280;32161;48.148;-1.554;2023-03-11T00:00:14;100019.28;;;5.71;93.13
46464;BME280;32161;48.148;-1.554;2023-03-11T00:02:46;100019.28;;;5.71;93.01
46464;BME280;32161;48.148;-1.554;2023-03-11T00:05:17;100021.16;;;5.70;92.98
46464;BME280;32161;48.148;-1.554;2023-03-11T00:07:45;100031.72;;;5.72;93.40
46464;BME280;32161;48.148;-1.554;2023-03-11T00:10:15;100061.19;;;5.73;93.10
46464;BME280;32161;48.148;-1.554;2023-03-11T00:12:44;100046.41;;;5.76;93.24
46464;BME280;32161;48.148;-1.554;2023-03-11T00:15:13;100048.53;;;5.74;92.91
46464;BME280;32161;48.148;-1.554;2023-03-11T00:17:41;100057.19;;;5.76;93.21
46464;BME280;32161;48.148;-1.554;2023-03-11T00:20:17;100054.06;;;5.79;93.44
46464;BME280;32161;48.148;-1.554;2023-03-11T00:22:45;100024.59;;;5.84;93.12
46464;BME280;32161;48.148;-1.554;2023-03-11T00:25:14;100014.41;;;5.86;93.20
46464;BME280;32161;48.148;-1.554;2023-03-11T00:27:41;100050.53;;;5.85;92.44
46464;BME280;32161;48.148;-1.554;2023-03-11T00:30:11;100086.88;;;5.76;92.40
46464;BME280;32161;48.148;-1.554;2023-03-11T00:32:39;100105.97;;;5.74;93.11
46464;BME280;32161;48.148;-1.554;2023-03-11T00:35:09;100129.00;;;5.77;93.10
46464;BME280;32161;48.148;-1.554;2023-03-11T00:37:40;100105.53;;;5.77;93.44
46464;BME280;32161;48.148;-1.554;2023-03-11T00:40:12;100084.78;;;5.78;93.69
46464;BME280;32161;48.148;-1.554;2023-03-11T00:42:40;100063.81;;;5.80;92.93
46464;BME280;32161;48.148;-1.554;2023-03-11T00:45:08;100072.94;;;5.85;92.88
46464;BME280;32161;48.148;-1.554;2023-03-11T00:47:36;100077.06;;;5.88;92.77
46464;BME280;32161;48.148;-1.554;2023-03-11T00:50:05;100112.44;;;5.67;93.31
46464;BME280;32161;48.148;-1.554;2023-03-11T00:52:34;100109.97;;;5.58;93.62
46464;BME280;32161;48.148;-1.554;2023-03-11T00:55:04;100074.69;;;5.67;94.20
46464;BME280;32161;48.148;-1.554;2023-03-11T00:57:32;100061.03;;;5.61;94.46
46464;BME280;32161;48.148;-1.554;2023-03-11T00:59:59;100062.69;;;5.62;95.40
46464;BME280;32161;48.148;-1.554;2023-03-11T01:02:27;100026.97;;;5.67;95.25
46464;BME280;32161;48.148;-1.554;2023-03-11T01:04:55;100037.53;;;5.69;94.64
46464;BME280;32161;48.148;-1.554;2023-03-11T01:07:22;100025.72;;;5.70;95.02
46464;BME280;32161;48.148;-1.554;2023-03-11T01:09:50;100037.34;;;5.70;95.46
46464;BME280;32161;48.148;-1.554;2023-03-11T01:12:19;100027.78;;;5.74;95.34
46464;BME280;32161;48.148;-1.554;2023-03-11T01:14:46;100033.56;;;5.78;94.86
46464;BME280;32161;48.148;-1.554;2023-03-11T01:17:14;100035.44;;;5.77;95.04
46464;BME280;32161;48.148;-1.554;2023-03-11T01:19:41;100049.75;;;5.78;94.72
46464;BME280;32161;48.148;-1.554;2023-03-11T01:22:10;100054.25;;;5.84;94.52
46464;BME280;32161;48.148;-1.554;2023-03-11T01:24:37;100068.78;;;5.83;94.10
46464;BME280;32161;48.148;-1.554;2023-03-11T01:27:05;100081.03;;;5.79;94.41
46464;BME280;32161;48.148;-1.554;2023-03-11T01:29:34;100069.22;;;5.80;94.87
46464;BME280;32161;48.148;-1.554;2023-03-11T01:32:01;100057.19;;;5.82;95.05
46464;BME280;32161;48.148;-1.554;2023-03-11T01:34:29;100069.84;;;5.82;94.61
46464;BME280;32161;48.148;-1.554;2023-03-11T01:36:59;100063.19;;;5.84;94.70
46464;BME280;32161;48.148;-1.554;2023-03-11T01:39:26;100050.72;;;5.83;94.28
46464;BME280;32161;48.148;-1.554;2023-03-11T01:41:54;100054.25;;;5.84;94.51
46464;BME280;32161;48.148;-1.554;2023-03-11T01:44:22;100036.22;;;5.84;95.18
46464;BME280;32161;48.148;-1.554;2023-03-11T01:47:45;100028.53;;;5.88;94.50
46464;BME280;32161;48.148;-1.554;2023-03-11T01:50:13;100024.78;;;5.89;94.58
46464;BME280;32161;48.148;-1.554;2023-03-11T01:52:41;100010.44;;;5.95;94.15
46464;BME280;32161;48.148;-1.554;2023-03-11T01:55:10;100025.59;;;5.90;93.63
46464;BME280;32161;48.148;-1.554;2023-03-11T01:57:41;100019.59;;;5.87;93.63
46464;BME280;32161;48.148;-1.554;2023-03-11T02:00:13;100011.28;;;5.89;93.61
46464;BME280;32161;48.148;-1.554;2023-03-11T02:02:47;100006.97;;;5.81;94.01
46464;BME280;32161;48.148;-1.554;2023-03-11T02:05:17;100006.34;;;5.79;94.07
46464;BME280;32161;48.148;-1.554;2023-03-11T02:07:44;100002.03;;;5.78;94.41
46464;BME280;32161;48.148;-1.554;2023-03-11T02:10:13;99998.50;;;5.78;94.82
46464;BME280;32161;48.148;-1.554;2023-03-11T02:12:41;100006.97;;;5.81;94.62
46464;BME280;32161;48.148;-1.554;2023-03-11T02:15:11;100015.50;;;5.78;94.35
46464;BME280;32161;48.148;-1.554;2023-03-11T02:17:40;100010.72;;;5.80;94.56
46464;BME280;32161;48.148;-1.554;2023-03-11T02:20:21;99999.50;;;5.83;94.17
46464;BME280;32161;48.148;-1.554;2023-03-11T02:22:54;100013.84;;;5.77;94.30
46464;BME280;32161;48.148;-1.554;2023-03-11T02:25:31;100009.31;;;5.71;94.69
46464;BME280;32161;48.148;-1.554;2023-03-11T02:28:07;100016.16;;;5.74;95.02
46464;BME280;32161;48.148;-1.554;2023-03-11T02:30:36;100009.94;;;5.73;95.01
46464;BME280;32161;48.148;-1.554;2023-03-11T02:33:06;99994.78;;;5.72;94.96
46464;BME280;32161;48.148;-1.554;2023-03-11T02:35:34;100007.41;;;5.78;95.19
46464;BME280;32161;48.148;-1.554;2023-03-11T02:38:01;100000.19;;;5.72;94.84
46464;BME280;32161;48.148;-1.554;2023-03-11T02:40:48;100000.81;;;5.74;94.89
46464;BME280;32161;48.148;-1.554;2023-03-11T02:43:22;99999.16;;;5.73;95.41
46464;BME280;32161;48.148;-1.554;2023-03-11T02:45:51;100005.34;;;5.80;95.11
46464;BME280;32161;48.148;-1.554;2023-03-11T02:48:19;100012.56;;;5.80;94.89
46464;BME280;32161;48.148;-1.554;2023-03-11T02:50:47;99990.56;;;5.83;94.71
46464;BME280;32161;48.148;-1.554;2023-03-11T02:53:15;99945.13;;;5.86;94.95
46464;BME280;32161;48.148;-1.554;2023-03-11T02:55:43;99973.13;;;5.85;94.53
46464;BME280;32161;48.148;-1.554;2023-03-11T02:58:10;99967.50;;;5.87;94.63
46464;BME280;32161;48.148;-1.554;2023-03-11T03:00:39;99991.63;;;5.82;94.46
46464;BME280;32161;48.148;-1.554;2023-03-11T03:03:07;99993.31;;;5.76;94.97
46464;BME280;32161;48.148;-1.554;2023-03-11T03:05:35;100000.81;;;5.74;95.54
46464;BME280;32161;48.148;-1.554;2023-03-11T03:08:03;100030.03;;;5.77;95.54
46464;BME280;32161;48.148;-1.554;2023-03-11T03:10:30;100076.69;;;5.78;95.06
46464;BME280;32161;48.148;-1.554;2023-03-11T03:12:58;100057.44;;;5.74;95.14
46464;BME280;32161;48.148;-1.554;2023-03-11T03:15:26;100020.34;;;5.70;95.81
46464;BME280;32161;48.148;-1.554;2023-03-11T03:17:55;100000.19;;;5.72;96.31
46464;BME280;32161;48.148;-1.554;2023-03-11T03:20:22;100005.16;;;5.75;96.33
46464;BME280;32161;48.148;-1.554;2023-03-11T03:22:51;100013.22;;;5.75;96.01
46464;BME280;32161;48.148;-1.554;2023-03-11T03:25:19;100041.00;;;5.82;95.81
46464;BME280;32161;48.148;-1.554;2023-03-11T03:27:47;100058.63;;;5.85;94.91
46464;BME280;32161;48.148;-1.554;2023-03-11T03:30:15;100075.47;;;5.74;95.26
46464;BME280;32161;48.148;-1.554;2023-03-11T03:32:43;100090.44;;;5.70;95.50
46464;BME280;32161;48.148;-1.554;2023-03-11T03:35:12;100095.53;;;5.39;97.09
46464;BME280;32161;48.148;-1.554;2023-03-11T03:37:40;100081.19;;;5.46;96.36
46464;BME280;32161;48.148;-1.554;2023-03-11T03:40:09;100070.19;;;5.54;96.03
46464;BME280;32161;48.148;-1.554;2023-03-11T03:42:37;100078.03;;;5.55;96.35
46464;BME280;32161;48.148;-1.554;2023-03-11T03:45:07;100088.00;;;5.61;96.42
46464;BME280;32161;48.148;-1.554;2023-03-11T03:47:36;100061.63;;;5.63;96.03
46464;BME280;32161;48.148;-1.554;2023-03-11T03:50:06;100057.47;;;5.61;96.41
46464;BME280;32161;48.148;-1.554;2023-03-11T03:52:35;100066.84;;;5.58;96.57
46464;BME280;32161;48.148;-1.554;2023-03-11T03:55:04;100054.44;;;5.51;97.05
46464;BME280;32161;48.148;-1.554;2023-03-11T03:57:32;100047.34;;;5.56;97.89
46464;BME280;32161;48.148;-1.554;2023-03-11T04:00:00;100058.94;;;5.63;97.71
46464;BME280;32161;48.148;-1.554;2023-03-11T04:02:29;100061.19;;;5.67;97.33
46464;BME280;32161;48.148;-1.554;2023-03-11T04:04:57;100047.72;;;5.67;96.78
46464;BME280;32161;48.148;-1.554;2023-03-11T04:07:24;100050.59;;;5.72;97.08
46464;BME280;32161;48.148;-1.554;2023-03-11T04:09:53;100059.06;;;5.75;96.89
46464;BME280;32161;48.148;-1.554;2023-03-11T04:12:21;100058.41;;;5.80;96.98
46464;BME280;32161;48.148;-1.554;2023-03-11T04:14:48;100052.59;;;5.83;95.90
46464;BME280;32161;48.148;-1.554;2023-03-11T04:17:16;100016.50;;;5.84;95.70
46464;BME280;32161;48.148;-1.554;2023-03-11T04:19:44;100001.31;;;5.90;95.25
46464;BME280;32161;48.148;-1.554;2023-03-11T04:22:12;100026.03;;;5.86;95.61
46464;BME280;32161;48.148;-1.554;2023-03-11T04:24:39;100011.56;;;5.81;95.53
46464;BME280;32161;48.148;-1.554;2023-03-11T04:27:08;100006.97;;;5.81;95.41
46464;BME280;32161;48.148;-1.554;2023-03-11T04:29:36;100023.75;;;5.83;96.08
46464;BME280;32161;48.148;-1.554;2023-03-11T04:32:05;100013.19;;;5.82;95.48
46464;BME280;32161;48.148;-1.554;2023-03-11T04:34:32;100011.56;;;5.81;95.45
46464;BME280;32161;48.148;-1.554;2023-03-11T04:37:00;100008.03;;;5.80;95.79
46464;BME280;32161;48.148;-1.554;2023-03-11T04:39:27;100013.44;;;5.80;95.63
46464;BME280;32161;48.148;-1.554;2023-03-11T04:41:56;100019.41;;;5.82;95.85
46464;BME280;32161;48.148;-1.554;2023-03-11T04:44:24;100024.41;;;5.79;95.88
46464;BME280;32161;48.148;-1.554;2023-03-11T04:46:52;100019.44;;;5.76;96.05
46464;BME280;32161;48.148;-1.554;2023-03-11T04:49:20;100027.78;;;5.74;95.83
46464;BME280;32161;48.148;-1.554;2023-03-11T04:51:47;100026.72;;;5.75;95.72
46464;BME280;32161;48.148;-1.554;2023-03-11T04:54:15;100022.78;;;5.78;95.86
46464;BME280;32161;48.148;-1.554;2023-03-11T04:56:42;100028.16;;;5.78;96.10
46464;BME280;32161;48.148;-1.554;2023-03-11T04:59:10;100020.66;;;5.80;96.25
46464;BME280;32161;48.148;-1.554;2023-03-11T05:01:39;100014.44;;;5.79;95.98
46464;BME280;32161;48.148;-1.554;2023-03-11T05:04:07;100022.97;;;5.76;96.01
46464;BME280;32161;48.148;-1.554;2023-03-11T05:06:36;100027.09;;;5.85;95.41
46464;BME280;32161;48.148;-1.554;2023-03-11T05:09:04;100033.94;;;5.81;95.89
46464;BME280;32161;48.148;-1.554;2023-03-11T05:11:31;100026.28;;;5.78;96.40
46464;BME280;32161;48.148;-1.554;2023-03-11T05:13:59;100027.28;;;5.84;96.20
46464;BME280;32161;48.148;-1.554;2023-03-11T05:16:26;100027.75;;;5.81;95.78
46464;BME280;32161;48.148;-1.554;2023-03-11T05:18:55;100028.13;;;5.84;95.98
46464;BME280;32161;48.148;-1.554;2023-03-11T05:21:23;100038.91;;;5.84;96.21
46464;BME280;32161;48.148;-1.554;2023-03-11T05:23:50;100042.63;;;5.83;95.85
46464;BME280;32161;48.148;-1.554;2023-03-11T05:26:18;100034.78;;;5.82;95.97
46464;BME280;32161;48.148;-1.554;2023-03-11T05:28:45;100045.13;;;5.85;96.43
46464;BME280;32161;48.148;-1.554;2023-03-11T05:31:13;100052.19;;;5.86;96.48
46464;BME280;32161;48.148;-1.554;2023-03-11T05:33:41;100048.66;;;5.85;96.42
46464;BME280;32161;48.148;-1.554;2023-03-11T05:36:10;100056.31;;;5.88;96.08
46464;BME280;32161;48.148;-1.554;2023-03-11T05:38:38;100064.41;;;5.88;96.03
46464;BME280;32161;48.148;-1.554;2023-03-11T05:41:05;100062.31;;;5.91;95.40
46464;BME280;32161;48.148;-1.554;2023-03-11T05:43:33;100055.03;;;5.91;95.61
46464;BME280;32161;48.148;-1.554;2023-03-11T05:46:00;100064.38;;;5.95;95.82
46464;BME280;32161;48.148;-1.554;2023-03-11T05:48:28;100053.59;;;5.95;95.54
46464;BME280;32161;48.148;-1.554;2023-03-11T05:50:55;100067.88;;;6.02;95.46
46464;BME280;32161;48.148;-1.554;2023-03-11T05:53:25;100068.09;;;6.01;95.05
46464;BME280;32161;48.148;-1.554;2023-03-11T05:55:56;100076.22;;;5.94;95.60
46464;BME280;32161;48.148;-1.554;2023-03-11T05:58:24;100081.41;;;5.89;96.26
46464;BME280;32161;48.148;-1.554;2023-03-11T06:00:52;100081.78;;;5.99;96.15
46464;BME280;32161;48.148;-1.554;2023-03-11T06:03:19;100081.19;;;5.91;96.32
46464;BME280;32161;48.148;-1.554;2023-03-11T06:05:48;100086.78;;;5.96;96.26
46464;BME280;32161;48.148;-1.554;2023-03-11T06:08:16;100082.84;;;5.98;96.06
46464;BME280;32161;48.148;-1.554;2023-03-11T06:10:45;100077.88;;;5.95;96.44
46464;BME280;32161;48.148;-1.554;2023-03-11T06:13:13;100072.94;;;5.92;96.78
46464;BME280;32161;48.148;-1.554;2023-03-11T06:15:42;100074.97;;;5.90;97.09
46464;BME280;32161;48.148;-1.554;2023-03-11T06:18:10;100085.38;;;5.86;97.89
46464;BME280;32161;48.148;-1.554;2023-03-11T06:20:38;100074.16;;;5.90;97.49
46464;BME280;32161;48.148;-1.554;2023-03-11T06:23:06;100080.38;;;5.90;97.45
46464;BME280;32161;48.148;-1.554;2023-03-11T06:25:33;100069.56;;;5.90;97.21
46464;BME280;32161;48.148;-1.554;2023-03-11T06:28:02;100073.31;;;5.89;97.74
46464;BME280;32161;48.148;-1.554;2023-03-11T06:30:30;100075.63;;;5.92;97.56
46464;BME280;32161;48.148;-1.554;2023-03-11T06:32:58;100080.78;;;5.87;97.32
46464;BME280;32161;48.148;-1.554;2023-03-11T06:35:25;100082.66;;;5.86;97.85
46464;BME280;32161;48.148;-1.554;2023-03-11T06:37:53;100091.81;;;5.85;97.98
46464;BME280;32161;48.148;-1.554;2023-03-11T06:40:20;100089.13;;;5.85;97.65
46464;BME280;32161;48.148;-1.554;2023-03-11T06:42:48;100088.72;;;5.82;98.00
46464;BME280;32161;48.148;-1.554;2023-03-11T06:45:17;100092.47;;;5.81;98.60
46464;BME280;32161;48.148;-1.554;2023-03-11T06:47:45;100088.69;;;5.88;97.92
46464;BME280;32161;48.148;-1.554;2023-03-11T06:50:12;100081.84;;;5.86;98.66
46464;BME280;32161;48.148;-1.554;2023-03-11T06:52:40;100075.41;;;5.94;98.24
46464;BME280;32161;48.148;-1.554;2023-03-11T06:55:08;100077.94;;;5.82;98.46
46464;BME280;32161;48.148;-1.554;2023-03-11T06:57:36;100085.59;;;5.85;99.46
46464;BME280;32161;48.148;-1.554;2023-03-11T07:00:05;100081.03;;;5.85;99.82
46464;BME280;32161;48.148;-1.554;2023-03-11T07:02:37;100088.22;;;5.92;99.62
46464;BME280;32161;48.148;-1.554;2023-03-11T07:05:05;100078.50;;;5.91;99.25
46464;BME280;32161;48.148;-1.554;2023-03-11T07:07:33;100077.44;;;5.92;99.86
46464;BME280;32161;48.148;-1.554;2023-03-11T07:10:01;100081.59;;;6.01;99.27
46464;BME280;32161;48.148;-1.554;2023-03-11T07:12:28;100071.78;;;6.06;98.49
46464;BME280;32161;48.148;-1.554;2023-03-11T07:14:57;100074.31;;;6.01;98.46
46464;BME280;32161;48.148;-1.554;2023-03-11T07:17:25;100079.53;;;5.96;98.60
46464;BME280;32161;48.148;-1.554;2023-03-11T07:19:54;100087.59;;;6.03;98.70
46464;BME280;32161;48.148;-1.554;2023-03-11T07:22:22;100091.34;;;6.02;98.61
46464;BME280;32161;48.148;-1.554;2023-03-11T07:24:50;100096.50;;;6.03;99.26
46464;BME280;32161;48.148;-1.554;2023-03-11T07:27:17;100088.38;;;6.10;98.59
46464;BME280;32161;48.148;-1.554;2023-03-11T07:29:45;100093.59;;;6.05;98.13
46464;BME280;32161;48.148;-1.554;2023-03-11T07:32:13;100088.75;;;6.14;98.79
46464;BME280;32161;48.148;-1.554;2023-03-11T07:34:40;100089.81;;;6.13;98.44
46464;BME280;32161;48.148;-1.554;2023-03-11T07:37:09;100095.66;;;6.09;99.21
46464;BME280;32161;48.148;-1.554;2023-03-11T07:39:37;100096.88;;;6.14;98.28
46464;BME280;32161;48.148;-1.554;2023-03-11T07:42:05;100096.59;;;6.22;98.46
46464;BME280;32161;48.148;-1.554;2023-03-11T07:44:33;100102.13;;;6.33;97.43
46464;BME280;32161;48.148;-1.554;2023-03-11T07:47:02;100106.97;;;6.25;98.11
46464;BME280;32161;48.148;-1.554;2023-03-11T07:49:29;100097.66;;;6.21;98.22
46464;BME280;32161;48.148;-1.554;2023-03-11T07:51:57;100102.22;;;6.20;98.99
46464;BME280;32161;48.148;-1.554;2023-03-11T07:54:26;100106.38;;;6.23;98.00
46464;BME280;32161;48.148;-1.554;2023-03-11T07:56:54;100110.91;;;6.22;98.14
46464;BME280;32161;48.148;-1.554;2023-03-11T07:59:21;100120.88;;;6.22;99.11
46464;BME280;32161;48.148;-1.554;2023-03-11T08:01:49;100121.31;;;6.19;99.55
46464;BME280;32161;48.148;-1.554;2023-03-11T08:04:17;100118.00;;;6.23;99.62
46464;BME280;32161;48.148;-1.554;2023-03-11T08:06:46;100128.97;;;6.22;99.82
46464;BME280;32161;48.148;-1.554;2023-03-11T08:09:14;100135.19;;;6.22;100.00
46464;BME280;32161;48.148;-1.554;2023-03-11T08:11:43;100133.53;;;6.28;100.00
46464;BME280;32161;48.148;-1.554;2023-03-11T08:14:10;100140.13;;;6.32;100.00
46464;BME280;32161;48.148;-1.554;2023-03-11T08:16:39;100149.41;;;6.43;98.30
46464;BME280;32161;48.148;-1.554;2023-03-11T08:19:10;100149.22;;;6.38;98.45
46464;BME280;32161;48.148;-1.554;2023-03-11T08:21:37;100147.38;;;6.38;98.43
46464;BME280;32161;48.148;-1.554;2023-03-11T08:24:06;100161.41;;;6.53;98.08
46464;BME280;32161;48.148;-1.554;2023-03-11T08:26:34;100156.03;;;6.47;97.79
46464;BME280;32161;48.148;-1.554;2023-03-11T08:29:03;100164.69;;;6.55;98.61
46464;BME280;32161;48.148;-1.554;2023-03-11T08:31:32;100163.75;;;6.43;98.55
46464;BME280;32161;48.148;-1.554;2023-03-11T08:34:03;100170.78;;;6.44;98.96
46464;BME280;32161;48.148;-1.554;2023-03-11T08:36:31;100173.44;;;6.51;100.00
46464;BME280;32161;48.148;-1.554;2023-03-11T08:38:59;100182.25;;;6.40;99.17
46464;BME280;32161;48.148;-1.554;2023-03-11T08:41:27;100183.47;;;6.44;99.91
46464;BME280;32161;48.148;-1.554;2023-03-11T08:43:55;100176.75;;;6.15;100.00
46464;BME280;32161;48.148;-1.554;2023-03-11T08:46:28;100175.28;;;6.19;100.00
46464;BME280;32161;48.148;-1.554;2023-03-11T08:48:56;100171.91;;;6.30;100.00
46464;BME280;32161;48.148;-1.554;2023-03-11T08:51:25;100166.88;;;6.40;100.00
46464;BME280;32161;48.148;-1.554;2023-03-11T08:53:53;100172.91;;;6.42;100.00
46464;BME280;32161;48.148;-1.554;2023-03-11T08:56:20;100180.31;;;6.53;100.00
46464;BME280;32161;48.148;-1.554;2023-03-11T08:58:48;100181.41;;;6.71;100.00
46464;BME280;32161;48.148;-1.554;2023-03-11T09:01:16;100184.28;;;6.76;100.00
46464;BME280;32161;48.148;-1.554;2023-03-11T09:03:46;100188.59;;;6.83;100.00
46464;BME280;32161;48.148;-1.554;2023-03-11T09:06:16;100199.38;;;6.83;100.00
46464;BME280;32161;48.148;-1.554;2023-03-11T09:08:44;100200.31;;;6.71;100.00
46464;BME280;32161;48.148;-1.554;2023-03-11T09:11:13;100203.66;;;6.73;100.00
46464;BME280;32161;48.148;-1.554;2023-03-11T09:13:41;100207.06;;;6.87;100.00
46464;BME280;32161;48.148;-1.554;2023-03-11T09:16:12;100202.84;;;6.97;100.00
46464;BME280;32161;48.148;-1.554;2023-03-11T09:18:40;100204.66;;;7.03;100.00
46464;BME280;32161;48.148;-1.554;2023-03-11T09:21:09;100195.97;;;6.95;100.00
46464;BME280;32161;48.148;-1.554;2023-03-11T09:23:38;100204.03;;;7.01;100.00
46464;BME280;32161;48.148;-1.554;2023-03-11T09:26:06;100207.53;;;7.08;100.00
46464;BME280;32161;48.148;-1.554;2023-03-11T09:28:33;100208.97;;;7.11;100.00
46464;BME280;32161;48.148;-1.554;2023-03-11T09:31:01;100198.59;;;7.08;100.00
46464;BME280;32161;48.148;-1.554;2023-03-11T09:33:29;100219.09;;;7.16;100.00
46464;BME280;32161;48.148;-1.554;2023-03-11T09:35:58;100220.03;;;7.28;100.00
46464;BME280;32161;48.148;-1.554;2023-03-11T09:38:27;100219.41;;;7.26;100.00
46464;BME280;32161;48.148;-1.554;2023-03-11T09:41:00;100233.88;;;7.13;100.00
46464;BME280;32161;48.148;-1.554;2023-03-11T09:43:46;100224.56;;;7.09;100.00
46464;BME280;32161;48.148;-1.554;2023-03-11T09:46:50;100218.44;;;7.20;100.00
46464;BME280;32161;48.148;-1.554;2023-03-11T09:49:31;100223.19;;;7.25;100.00
46464;BME280;32161;48.148;-1.554;2023-03-11T09:52:08;100223.28;;;7.37;100.00
46464;BME280;32161;48.148;-1.554;2023-03-11T09:54:41;100223.50;;;7.35;100.00
46464;BME280;32161;48.148;-1.554;2023-03-11T09:57:14;100216.66;;;7.32;100.00
46464;BME280;32161;48.148;-1.554;2023-03-11T09:59:44;100215.69;;;7.45;100.00
46464;BME280;32161;48.148;-1.554;2023-03-11T10:02:17;100213.72;;;7.59;100.00
46464;BME280;32161;48.148;-1.554;2023-03-11T10:04:52;100210.31;;;7.64;100.00
46464;BME280;32161;48.148;-1.554;2023-03-11T10:07:27;100209.13;;;7.59;100.00
46464;BME280;32161;48.148;-1.554;2023-03-11T10:10:01;100211.09;;;7.71;100.00
46464;BME280;32161;48.148;-1.554;2023-03-11T10:12:43;100212.72;;;7.72;100.00
46464;BME280;32161;48.148;-1.554;2023-03-11T10:15:30;100215.44;;;7.53;100.00
46464;BME280;32161;48.148;-1.554;2023-03-11T10:21:06;100222.72;;;7.71;100.00
46464;BME280;32161;48.148;-1.554;2023-03-11T10:23:54;100221.03;;;7.77;100.00
46464;BME280;32161;48.148;-1.554;2023-03-11T10:26:30;100218.09;;;7.97;100.00
46464;BME280;32161;48.148;-1.554;2023-03-11T10:29:08;100213.56;;;7.91;100.00
46464;BME280;32161;48.148;-1.554;2023-03-11T10:31:44;100224.00;;;7.87;100.00
46464;BME280;32161;48.148;-1.554;2023-03-11T10:34:20;100218.03;;;7.85;100.00
46464;BME280;32161;48.148;-1.554;2023-03-11T10:36:57;100217.28;;;7.96;100.00
46464;BME280;32161;48.148;-1.554;2023-03-11T10:39:27;100224.78;;;8.13;100.00
46464;BME280;32161;48.148;-1.554;2023-03-11T10:42:00;100221.94;;;8.07;100.00
46464;BME280;32161;48.148;-1.554;2023-03-11T10:44:33;100225.91;;;8.05;100.00
46464;BME280;32161;48.148;-1.554;2023-03-11T10:47:01;100230.31;;;7.99;100.00
46464;BME280;32161;48.148;-1.554;2023-03-11T10:49:30;100226.34;;;8.02;100.00
46464;BME280;32161;48.148;-1.554;2023-03-11T10:51:57;100223.50;;;8.15;100.00
46464;BME280;32161;48.148;-1.554;2023-03-11T10:54:29;100221.44;;;8.29;100.00
46464;BME280;32161;48.148;-1.554;2023-03-11T10:57:00;100231.56;;;8.33;100.00
46464;BME280;32161;48.148;-1.554;2023-03-11T10:59:29;100227.16;;;8.39;100.00
46464;BME280;32161;48.148;-1.554;2023-03-11T11:02:00;100232.88;;;8.49;100.00
46464;BME280;32161;48.148;-1.554;2023-03-11T11:04:34;100239.63;;;8.59;100.00
46464;BME280;32161;48.148;-1.554;2023-03-11T11:07:28;100242.47;;;8.64;100.00
46464;BME280;32161;48.148;-1.554;2023-03-11T11:10:16;100235.19;;;8.76;100.00
46464;BME280;32161;48.148;-1.554;2023-03-11T11:12:55;100241.22;;;8.78;100.00
46464;BME280;32161;48.148;-1.554;2023-03-11T11:15:28;100234.66;;;8.86;100.00
46464;BME280;32161;48.148;-1.554;2023-03-11T11:17:59;100234.19;;;8.89;100.00
46464;BME280;32161;48.148;-1.554;2023-03-11T11:20:28;100234.06;;;8.95;100.00
46464;BME280;32161;48.148;-1.554;2023-03-11T11:22:59;100234.91;;;8.96;100.00
46464;BME280;32161;48.148;-1.554;2023-03-11T11:25:31;100244.25;;;9.12;100.00
46464;BME280;32161;48.148;-1.554;2023-03-11T11:28:03;100240.38;;;9.19;100.00
46464;BME280;32161;48.148;-1.554;2023-03-11T11:30:53;100240.22;;;9.14;100.00
46464;BME280;32161;48.148;-1.554;2023-03-11T11:33:25;100239.06;;;9.22;100.00
46464;BME280;32161;48.148;-1.554;2023-03-11T11:35:56;100248.66;;;9.36;100.00
46464;BME280;32161;48.148;-1.554;2023-03-11T11:38:26;100238.88;;;9.35;100.00
46464;BME280;32161;48.148;-1.554;2023-03-11T11:40:57;100241.69;;;9.40;100.00
46464;BME280;32161;48.148;-1.554;2023-03-11T11:43:40;100246.53;;;9.50;100.00
46464;BME280;32161;48.148;-1.554;2023-03-11T11:46:23;100239.81;;;9.52;100.00
46464;BME280;32161;48.148;-1.554;2023-03-11T11:49:10;100239.34;;;9.44;100.00
46464;BME280;32161;48.148;-1.554;2023-03-11T11:51:46;100258.94;;;9.46;100.00
46464;BME280;32161;48.148;-1.554;2023-03-11T11:54:22;100261.28;;;9.54;100.00
46464;BME280;32161;48.148;-1.554;2023-03-11T11:56:51;100250.53;;;9.59;100.00
46464;BME280;32161;48.148;-1.554;2023-03-11T11:59:22;100258.69;;;9.71;100.00
46464;BME280;32161;48.148;-1.554;2023-03-11T12:02:02;100262.34;;;9.76;100.00
46464;BME280;32161;48.148;-1.554;2023-03-11T12:04:52;100261.50;;;9.88;100.00
46464;BME280;32161;48.148;-1.554;2023-03-11T12:07:35;100262.22;;;9.83;100.00
46464;BME280;32161;48.148;-1.554;2023-03-11T12:10:27;100258.56;;;9.89;100.00
46464;BME280;32161;48.148;-1.554;2023-03-11T12:13:23;100261.50;;;9.99;100.00
46464;BME280;32161;48.148;-1.554;2023-03-11T12:15:59;100270.22;;;10.01;100.00
46464;BME280;32161;48.148;-1.554;2023-03-11T12:18:34;100275.28;;;10.10;100.00
46464;BME280;32161;48.148;-1.554;2023-03-11T12:21:16;100261.25;;;10.13;100.00
46464;BME280;32161;48.148;-1.554;2023-03-11T12:24:00;100264.78;;;10.25;100.00
46464;BME280;32161;48.148;-1.554;2023-03-11T12:26:38;100267.84;;;10.29;100.00
46464;BME280;32161;48.148;-1.554;2023-03-11T12:29:12;100269.31;;;10.48;100.00
46464;BME280;32161;48.148;-1.554;2023-03-11T12:31:46;100260.88;;;10.33;100.00
46464;BME280;32161;48.148;-1.554;2023-03-11T12:34:15;100264.75;;;10.37;100.00
46464;BME280;32161;48.148;-1.554;2023-03-11T12:36:47;100272.56;;;10.33;100.00
46464;BME280;32161;48.148;-1.554;2023-03-11T12:39:23;100262.84;;;10.37;100.00
46464;BME280;32161;48.148;-1.554;2023-03-11T12:42:16;100266.75;;;10.41;100.00
46464;BME280;32161;48.148;-1.554;2023-03-11T12:44:46;100260.94;;;10.49;100.00
46464;BME280;32161;48.148;-1.554;2023-03-11T12:47:22;100261.94;;;10.60;100.00
46464;BME280;32161;48.148;-1.554;2023-03-11T12:49:52;100257.13;;;10.62;100.00
46464;BME280;32161;48.148;-1.554;2023-03-11T12:52:28;100253.41;;;10.68;100.00
46464;BME280;32161;48.148;-1.554;2023-03-11T12:55:33;100255.75;;;10.77;100.00
46464;BME280;32161;48.148;-1.554;2023-03-11T12:58:42;100252.78;;;10.78;100.00
46464;BME280;32161;48.148;-1.554;2023-03-11T13:01:43;100248.66;;;10.75;100.00
46464;BME280;32161;48.148;-1.554;2023-03-11T13:07:44;100253.47;;;10.85;100.00
46464;BME280;32161;48.148;-1.554;2023-03-11T13:10:32;100262.84;;;10.78;100.00